Pasinler, Turkey
Current Conditions -  °F | °C
As of 12:50 PM on Wednesday 22 Oct 2014 (Local Time) from LTCE Reporting Station
Clear Clear  
Wind Chill: 57°   Ceiling: Unl
Heat Index: 57°   Visibility: 6mi
Dew Point: 30°   Wind: 10mph
Humidity: 36%   Direction: 280°W
Pressure: 30.15"   Gusts: NA
Location:  39.99°N, 41.69°E
Report Text: LTCE 220950Z 28009KT CAVOK 14/M01 Q1021 NOSIG
Loading
Personal Weather Stations






























Interactive Weather Map New forecast layout! Learn more

10-Day Weather Forecast

Advertisements
Track Severe Weather on mobile